Time;durP1;ratioP1;P1;durP2;ratioP2;P2;SDS_P1;SDS_P2;PMS_P1;PMS_P2;Temp;Humidity;BMP_temperature;BMP_pressure;BME280_temperature;BME280_humidity;BME280_pressure;Samples;Min_cycle;Max_cycle;Signal;HPM_P1;HPM_P2
2021/11/08 00:01:09;;;;;;;9.25;7.67;;;;;;;15.91;50.40;99363.29;1767279;78;21071;-65
2021/11/08 00:03:39;;;;;;;8.75;7.80;;;;;;;15.91;50.38;99360.61;1752825;78;21018;-65
2021/11/08 00:06:06;;;;;;;8.63;7.60;;;;;;;15.91;50.39;99354.44;1747675;80;21570;-65
2021/11/08 00:08:33;;;;;;;8.55;7.72;;;;;;;15.92;50.40;99360.12;1756763;78;21556;-64
2021/11/08 00:11:00;;;;;;;10.18;8.13;;;;;;;15.92;50.39;99353.42;1755740;78;21827;-65
2021/11/08 00:13:28;;;;;;;9.55;8.05;;;;;;;15.90;50.40;99346.93;1757935;78;20990;-65
2021/11/08 00:18:44;;;;;;;9.28;8.30;;;;;;;15.91;50.39;99342.39;1753277;78;20989;-66
2021/11/08 00:21:05;;;;;;;9.90;8.83;;;;;;;15.90;50.39;99332.72;1749253;79;21058;-64
2021/11/08 00:23:32;;;;;;;10.23;8.95;;;;;;;15.90;50.40;99336.74;1759248;79;21108;-66
2021/11/08 00:25:58;;;;;;;9.68;8.68;;;;;;;15.90;50.41;99332.72;1754608;78;21037;-65
2021/11/08 00:28:26;;;;;;;9.30;8.38;;;;;;;15.90;50.41;99326.03;1755069;78;21541;-65
2021/11/08 00:30:54;;;;;;;9.48;8.48;;;;;;;15.89;50.41;99320.35;1763882;80;21072;-65
2021/11/08 00:33:23;;;;;;;9.33;7.83;;;;;;;15.89;50.41;99329.20;1754556;79;21031;-65
2021/11/08 00:35:58;;;;;;;10.25;9.00;;;;;;;15.89;50.42;99327.05;1752799;78;21053;-65
2021/11/08 00:38:25;;;;;;;9.58;8.25;;;;;;;15.89;50.41;99332.41;1758815;78;21044;-66
2021/11/08 00:40:51;;;;;;;11.25;9.23;;;;;;;15.88;50.41;99332.12;1770273;78;21040;-65
2021/11/08 00:43:18;;;;;;;10.32;8.50;;;;;;;15.88;50.43;99323.55;1765180;78;21010;-65
2021/11/08 00:45:46;;;;;;;10.23;9.13;;;;;;;15.87;50.43;99323.23;1763856;78;21012;-65
2021/11/08 00:48:14;;;;;;;10.08;8.60;;;;;;;15.87;50.43;99320.56;1743338;78;21326;-64
2021/11/08 00:50:40;;;;;;;9.43;8.50;;;;;;;15.87;50.43;99327.25;1745167;78;21020;-65
2021/11/08 00:53:07;;;;;;;9.18;8.28;;;;;;;15.87;50.45;99327.78;1753724;79;21093;-65
2021/11/08 00:55:34;;;;;;;10.05;9.05;;;;;;;15.86;50.43;99336.34;1737700;78;21089;-65
2021/11/08 00:58:01;;;;;;;9.13;8.08;;;;;;;15.86;50.44;99331.51;1738052;80;21053;-65
2021/11/08 01:00:30;;;;;;;9.78;8.30;;;;;;;15.86;50.43;99328.30;1754450;78;21234;-66
2021/11/08 01:03:00;;;;;;;8.55;7.75;;;;;;;15.86;50.43;99320.27;1764066;80;21058;-65
2021/11/08 01:05:25;;;;;;;11.60;8.88;;;;;;;15.86;50.44;99322.95;1777987;79;21058;-66
2021/11/08 01:07:53;;;;;;;10.18;8.55;;;;;;;15.86;50.43;99319.45;1789839;78;21085;-65
2021/11/08 01:10:19;;;;;;;10.25;9.25;;;;;;;15.86;50.46;99320.80;1796204;78;21126;-64
2021/11/08 01:12:46;;;;;;;9.55;8.40;;;;;;;15.84;50.43;99322.34;1781211;78;21132;-65
2021/11/08 01:15:13;;;;;;;10.68;8.28;;;;;;;15.85;50.43;99321.81;1799352;78;21036;-65
2021/11/08 01:17:40;;;;;;;9.48;8.48;;;;;;;15.84;50.44;99319.66;1787593;78;21049;-65
2021/11/08 01:20:10;;;;;;;9.55;8.58;;;;;;;15.84;50.45;99324.17;1774061;78;21569;-66
2021/11/08 01:22:38;;;;;;;11.25;8.38;;;;;;;15.82;50.46;99317.72;1786182;78;21035;-65
2021/11/08 01:25:05;;;;;;;9.68;8.68;;;;;;;15.82;50.45;99332.45;1761309;80;21570;-64
2021/11/08 01:27:42;;;;;;;10.78;8.83;;;;;;;15.82;50.46;99340.48;1774633;78;21037;-64
2021/11/08 01:30:14;;;;;;;10.30;9.20;;;;;;;15.82;50.45;99337.80;1762953;78;21071;-64
2021/11/08 01:32:51;;;;;;;9.75;8.48;;;;;;;15.82;50.46;99323.56;1749527;80;21151;-68
2021/11/08 01:35:12;;;;;;;9.08;8.13;;;;;;;15.82;50.46;99316.38;1748903;80;21022;-66
2021/11/08 01:37:38;;;;;;;9.28;8.18;;;;;;;15.81;50.46;99313.38;1748436;80;21206;-66
2021/11/08 01:40:06;;;;;;;9.70;8.03;;;;;;;15.80;50.48;99309.08;1772889;80;21237;-65
2021/11/08 01:42:34;;;;;;;9.68;7.83;;;;;;;15.80;50.50;99318.94;1776633;79;21046;-64
2021/11/08 01:45:00;;;;;;;8.65;7.12;;;;;;;15.79;50.47;99311.44;1759145;80;21092;-65
2021/11/08 01:47:28;;;;;;;10.88;8.15;;;;;;;15.80;50.48;99301.53;1754335;79;21048;-66
2021/11/08 01:49:54;;;;;;;9.15;8.15;;;;;;;15.79;50.47;99306.08;1741905;80;21213;-66
2021/11/08 01:52:21;;;;;;;9.28;8.38;;;;;;;15.80;50.48;99308.23;1763141;79;21049;-66
2021/11/08 01:54:47;;;;;;;8.83;7.87;;;;;;;15.80;50.47;99301.53;1755135;80;21049;-65
2021/11/08 01:57:14;;;;;;;8.98;8.05;;;;;;;15.79;50.47;99298.56;1765645;79;21033;-65
2021/11/08 01:59:40;;;;;;;8.98;7.97;;;;;;;15.80;50.48;99296.17;1785180;79;21014;-65
2021/11/08 02:02:07;;;;;;;10.00;8.48;;;;;;;15.78;50.48;99301.77;1778239;80;21054;-66
2021/11/08 02:04:33;;;;;;;10.23;7.92;;;;;;;15.78;50.49;99305.79;1754284;80;21003;-65
2021/11/08 02:07:00;;;;;;;10.23;8.08;;;;;;;15.77;50.48;99305.47;1743196;81;21014;-66
2021/11/08 02:09:26;;;;;;;8.30;7.50;;;;;;;15.77;50.46;99301.45;1743448;81;21093;-65
2021/11/08 02:11:53;;;;;;;9.10;8.13;;;;;;;15.76;50.49;99297.14;1773947;78;21035;-65
2021/11/08 02:14:19;;;;;;;8.48;7.58;;;;;;;15.77;50.49;99306.81;1786881;80;23296;-65
2021/11/08 02:16:46;;;;;;;8.80;7.90;;;;;;;15.76;50.48;99311.03;1765855;79;21519;-65
2021/11/08 02:19:14;;;;;;;9.40;8.43;;;;;;;15.76;50.48;99312.38;1786603;80;21029;-65
2021/11/08 02:21:40;;;;;;;8.13;7.10;;;;;;;15.76;50.50;99309.69;1770417;80;21063;-65
2021/11/08 02:24:08;;;;;;;9.23;8.10;;;;;;;15.75;50.48;99299.50;1761233;80;21076;-65
2021/11/08 02:26:35;;;;;;;9.50;7.85;;;;;;;15.75;50.49;99295.48;1762315;80;21064;-64
2021/11/08 02:29:01;;;;;;;9.18;8.28;;;;;;;15.75;50.48;99303.52;1761610;80;21047;-66
2021/11/08 02:31:30;;;;;;;9.08;7.83;;;;;;;15.74;50.49;99292.49;1772071;80;21027;-65
2021/11/08 02:33:56;;;;;;;8.75;7.78;;;;;;;15.73;50.49;99291.67;1783255;79;21019;-65
2021/11/08 02:36:24;;;;;;;8.83;7.92;;;;;;;15.73;50.50;99294.88;1763910;79;21027;-65
2021/11/08 02:38:53;;;;;;;10.78;8.33;;;;;;;15.72;50.51;99298.05;1771301;80;21133;-65
2021/11/08 02:41:19;;;;;;;9.20;8.20;;;;;;;15.69;50.49;99281.59;1786466;80;21000;-65
2021/11/08 02:43:46;;;;;;;9.70;7.83;;;;;;;15.70;50.52;99288.56;1773702;80;21060;-66
2021/11/08 02:46:18;;;;;;;8.98;8.08;;;;;;;15.70;50.52;99288.08;1774510;78;21025;-65
2021/11/08 02:48:47;;;;;;;10.05;8.93;;;;;;;15.70;50.52;99299.28;1779861;79;21075;-66
2021/11/08 02:53:42;;;;;;;8.43;7.60;;;;;;;15.68;50.52;99320.94;1746823;81;21089;-65
2021/11/08 02:56:09;;;;;;;9.40;8.33;;;;;;;15.67;50.54;99321.95;1761234;80;21043;-65
2021/11/08 02:58:37;;;;;;;9.55;8.50;;;;;;;15.68;50.53;99328.13;1776428;80;21057;-65
2021/11/08 03:01:06;;;;;;;9.50;8.08;;;;;;;15.66;50.54;99328.33;1765957;79;21135;-65
2021/11/08 03:03:41;;;;;;;8.73;7.83;;;;;;;15.65;50.54;99323.21;1792800;79;22060;-65
2021/11/08 03:06:15;;;;;;;9.23;8.25;;;;;;;15.65;50.55;99316.52;1769661;80;21016;-66
2021/11/08 03:08:37;;;;;;;8.70;7.80;;;;;;;15.65;50.53;99311.16;1790380;80;21024;-65
2021/11/08 03:11:05;;;;;;;8.70;7.90;;;;;;;15.64;50.55;99307.64;1766887;80;21503;-65
2021/11/08 03:13:35;;;;;;;8.70;7.83;;;;;;;15.63;50.56;99307.87;1761552;80;21018;-66
2021/11/08 03:16:19;;;;;;;9.35;8.35;;;;;;;15.63;50.58;99314.57;1765956;80;21200;-66
2021/11/08 03:18:41;;;;;;;9.43;8.13;;;;;;;15.62;50.59;99307.55;1784179;80;21065;-66
2021/11/08 03:21:14;;;;;;;9.50;8.10;;;;;;;15.61;50.59;99310.76;1783007;79;21058;-65
2021/11/08 03:23:35;;;;;;;8.33;7.47;;;;;;;15.60;50.59;99304.27;1775402;78;21056;-66
2021/11/08 03:28:45;;;;;;;8.85;7.92;;;;;;;15.60;50.61;99292.22;1698810;83;21567;-66
2021/11/08 03:31:12;;;;;;;9.98;8.10;;;;;;;15.58;50.61;99295.11;1745067;78;21081;-65
2021/11/08 03:33:39;;;;;;;9.18;8.25;;;;;;;15.57;50.62;99304.19;1772180;79;20996;-65
2021/11/08 03:36:07;;;;;;;9.50;7.97;;;;;;;15.56;50.62;99300.37;1757542;81;21498;-65
2021/11/08 03:38:37;;;;;;;9.13;8.23;;;;;;;15.57;50.61;99297.98;1778419;78;21053;-65
2021/11/08 03:41:02;;;;;;;8.60;7.60;;;;;;;15.54;50.63;99286.67;1774530;79;21336;-64
2021/11/08 03:43:28;;;;;;;8.68;7.78;;;;;;;15.54;50.64;99300.05;1767248;80;21073;-65
2021/11/08 03:45:55;;;;;;;9.50;7.97;;;;;;;15.54;50.64;99298.72;1773564;79;21487;-65
2021/11/08 03:48:21;;;;;;;8.73;7.83;;;;;;;15.53;50.64;99298.42;1752775;80;21565;-66
2021/11/08 03:50:48;;;;;;;8.53;7.72;;;;;;;15.52;50.64;99296.77;1749004;80;21541;-66
2021/11/08 03:53:15;;;;;;;8.25;7.22;;;;;;;15.52;50.64;99295.43;1783015;80;21861;-66
2021/11/08 03:55:43;;;;;;;8.90;8.00;;;;;;;15.52;50.65;99295.43;1781757;79;21491;-66
2021/11/08 03:58:10;;;;;;;8.38;7.58;;;;;;;15.52;50.66;99298.63;1784579;79;21032;-66
2021/11/08 04:00:36;;;;;;;9.08;8.18;;;;;;;15.51;50.65;99305.00;1762415;80;21032;-64
2021/11/08 04:03:03;;;;;;;8.13;7.33;;;;;;;15.49;50.66;99291.01;1790984;80;21008;-66
2021/11/08 04:05:32;;;;;;;8.40;7.25;;;;;;;15.50;50.65;99297.50;1752068;80;21193;-66
2021/11/08 04:08:01;;;;;;;8.40;7.50;;;;;;;15.49;50.66;99289.67;1775318;79;21044;-65
2021/11/08 04:10:27;;;;;;;11.00;8.03;;;;;;;15.50;50.67;99296.69;1748370;79;21040;-65
2021/11/08 04:12:56;;;;;;;9.40;8.15;;;;;;;15.48;50.67;99292.06;1766965;79;21000;-65
2021/11/08 04:15:30;;;;;;;8.30;7.30;;;;;;;15.49;50.67;99288.33;1773828;78;20994;-65
2021/11/08 04:17:52;;;;;;;8.68;7.80;;;;;;;15.47;50.67;99293.92;1764841;78;21156;-65
2021/11/08 04:20:22;;;;;;;8.65;7.47;;;;;;;15.47;50.67;99288.57;1769092;78;21052;-66
2021/11/08 04:22:50;;;;;;;8.68;7.75;;;;;;;15.46;50.67;99290.92;1764208;78;21104;-65
2021/11/08 04:25:17;;;;;;;9.65;7.20;;;;;;;15.46;50.68;99283.42;1744476;78;21706;-65
2021/11/08 04:27:43;;;;;;;7.05;6.35;;;;;;;15.46;50.68;99291.45;1741214;78;21561;-66
2021/11/08 04:30:11;;;;;;;8.35;7.50;;;;;;;15.44;50.69;99286.30;1753691;78;22248;-66
2021/11/08 04:32:50;;;;;;;8.15;7.35;;;;;;;15.44;50.69;99283.63;1768333;78;20995;-65
2021/11/08 04:35:13;;;;;;;8.43;7.47;;;;;;;15.44;50.70;99288.98;1745962;78;21032;-66
2021/11/08 04:40:29;;;;;;;8.70;6.80;;;;;;;15.43;50.69;99304.75;1723933;81;21062;-65
2021/11/08 04:43:01;;;;;;;8.43;7.58;;;;;;;15.42;50.70;99308.97;1784968;79;21170;-66
2021/11/08 04:48:14;;;;;;;8.13;7.03;;;;;;;15.40;50.71;99311.84;1776282;78;21064;-66
2021/11/08 04:50:36;;;;;;;8.93;8.03;;;;;;;15.40;50.73;99312.38;1766963;80;21060;-66
2021/11/08 04:53:09;;;;;;;8.53;7.50;;;;;;;15.39;50.72;99310.19;1771227;80;21241;-65
2021/11/08 04:55:51;;;;;;;8.50;7.25;;;;;;;15.29;50.73;99296.43;1759124;80;21214;-66
2021/11/08 04:58:40;;;;;;;7.83;7.03;;;;;;;15.38;50.75;99315.78;1761822;79;21008;-65
2021/11/08 05:23:07;;;;;;;8.53;7.42;;;;;;;15.28;50.87;99326.39;1764232;80;21389;-65
2021/11/08 05:28:04;;;;;;;7.87;7.08;;;;;;;15.26;50.88;99334.30;1776572;78;21583;-66
2021/11/08 05:30:20;;;;;;;7.87;7.08;;;;;;;15.25;50.89;99333.48;1745665;80;21113;-64
2021/11/08 05:32:51;;;;;;;8.30;7.47;;;;;;;15.26;50.91;99350.36;1768441;80;21122;-65
2021/11/08 05:35:19;;;;;;;9.75;7.50;;;;;;;15.25;50.94;99361.58;1789284;78;21141;-64
2021/11/08 05:37:46;;;;;;;8.38;7.50;;;;;;;15.25;50.92;99361.58;1801691;78;21019;-65
2021/11/08 05:40:17;;;;;;;8.35;7.05;;;;;;;15.26;50.90;99363.73;1796937;78;21077;-64
2021/11/08 05:42:43;;;;;;;8.78;7.03;;;;;;;15.26;50.91;99368.59;1749380;80;21057;-66
2021/11/08 05:45:12;;;;;;;7.85;7.12;;;;;;;15.26;50.89;99364.58;1768178;80;21031;-66
2021/11/08 05:47:40;;;;;;;8.35;7.55;;;;;;;15.27;50.89;99369.41;1784968;79;21055;-65
2021/11/08 05:50:08;;;;;;;8.75;7.60;;;;;;;15.27;50.88;99364.05;1766684;80;21593;-71
2021/11/08 05:52:34;;;;;;;7.78;6.58;;;;;;;15.27;50.87;99362.20;1788384;78;21025;-66
2021/11/08 05:55:01;;;;;;;7.90;7.10;;;;;;;15.27;50.87;99366.73;1792666;78;21107;-68
2021/11/08 05:57:43;;;;;;;6.90;6.20;;;;;;;15.27;50.86;99366.21;1788430;78;21070;-68
2021/11/08 06:00:47;;;;;;;7.47;6.65;;;;;;;15.27;50.86;99372.91;1790940;78;21204;-68
2021/11/08 06:51:35;;;;;;;7.58;6.80;;;;;;;15.31;50.98;99412.93;1858964;75;21009;-68
2021/11/08 06:54:03;;;;;;;6.95;6.25;;;;;;;15.32;50.96;99413.25;1836281;77;21174;-66
2021/11/08 06:56:34;;;;;;;7.00;6.12;;;;;;;15.36;50.95;99419.55;1852362;77;21591;-68
2021/11/08 06:58:57;;;;;;;7.72;6.10;;;;;;;15.37;50.95;99416.64;1859244;77;21005;-66
2021/11/08 07:01:27;;;;;;;8.05;7.22;;;;;;;15.38;50.92;99415.63;1829512;77;21538;-67
2021/11/08 07:03:52;;;;;;;7.28;5.95;;;;;;;15.41;50.90;99417.86;1857853;77;21029;-69
2021/11/08 07:06:18;;;;;;;7.28;6.47;;;;;;;15.42;50.87;99412.83;1857480;77;21056;-70
2021/11/08 07:08:45;;;;;;;7.28;6.58;;;;;;;15.44;50.88;99413.45;1789177;80;21014;-67
2021/11/08 07:11:11;;;;;;;6.67;6.05;;;;;;;15.46;50.82;99421.28;1784270;80;21578;-63
2021/11/08 07:13:38;;;;;;;7.03;6.33;;;;;;;15.47;50.80;99426.92;1788736;79;21105;-64
2021/11/08 07:16:05;;;;;;;7.45;6.75;;;;;;;15.49;50.78;99417.67;1792743;79;21017;-66
2021/11/08 07:18:32;;;;;;;7.50;6.22;;;;;;;15.51;50.76;99413.42;1779507;78;21157;-65
2021/11/08 07:20:58;;;;;;;7.85;6.55;;;;;;;15.54;50.72;99413.02;1760340;80;21526;-67
2021/11/08 07:23:24;;;;;;;7.80;7.00;;;;;;;15.54;50.70;99419.19;1763080;81;21604;-65
2021/11/08 07:25:50;;;;;;;6.62;6.03;;;;;;;15.56;50.69;99421.66;1754099;81;21026;-65
2021/11/08 07:28:17;;;;;;;7.40;6.70;;;;;;;15.58;50.66;99428.16;1753853;81;21613;-68
2021/11/08 07:30:44;;;;;;;7.42;6.12;;;;;;;15.59;50.65;99431.13;1767178;81;21139;-64
2021/11/08 07:33:11;;;;;;;7.90;6.92;;;;;;;15.60;50.66;99426.91;1767662;81;21459;-65
2021/11/08 07:35:37;;;;;;;7.37;6.65;;;;;;;15.63;50.89;99439.08;1744489;81;21588;-69
2021/11/08 07:38:04;;;;;;;6.85;6.15;;;;;;;15.65;50.94;99442.37;1755261;81;21548;-68
2021/11/08 07:40:30;;;;;;;7.80;6.30;;;;;;;15.67;50.91;99445.13;1769734;79;21486;-68
2021/11/08 07:42:57;;;;;;;7.08;6.37;;;;;;;15.68;50.89;99437.42;1752486;81;21125;-70
2021/11/08 07:45:26;;;;;;;6.55;5.92;;;;;;;15.70;50.85;99444.73;1761150;80;21045;-71
2021/11/08 07:47:51;;;;;;;6.92;6.17;;;;;;;15.72;50.83;99448.51;1778567;79;21553;-67
2021/11/08 07:50:18;;;;;;;6.95;6.33;;;;;;;15.75;50.78;99455.36;1775226;80;21092;-70
2021/11/08 07:52:44;;;;;;;7.28;6.58;;;;;;;15.78;50.74;99458.45;1764561;80;21051;-68
2021/11/08 07:55:11;;;;;;;6.80;6.10;;;;;;;15.81;50.71;99460.69;1779327;79;21141;-67
2021/11/08 07:57:39;;;;;;;6.60;5.85;;;;;;;15.84;50.65;99464.30;1766445;81;21050;-69
2021/11/08 08:00:08;;;;;;;6.50;5.87;;;;;;;15.86;50.64;99462.76;1759507;79;21529;-69
2021/11/08 08:02:37;;;;;;;7.05;6.35;;;;;;;15.88;50.59;99467.39;1747659;81;21031;-66
2021/11/08 08:05:05;;;;;;;6.67;5.97;;;;;;;15.89;50.55;99474.38;1765551;79;21062;-68
2021/11/08 08:07:31;;;;;;;7.08;6.37;;;;;;;15.91;50.51;99471.78;1760782;80;21267;-70
2021/11/08 08:09:58;;;;;;;6.53;5.83;;;;;;;15.94;50.46;99474.58;1746452;80;20997;-70
2021/11/08 08:12:27;;;;;;;6.45;5.85;;;;;;;15.95;50.46;99474.05;1748713;81;21018;-68
2021/11/08 08:14:53;;;;;;;6.87;6.00;;;;;;;15.96;50.42;99475.72;1762615;81;21057;-67
2021/11/08 08:17:19;;;;;;;6.75;5.90;;;;;;;15.97;50.40;99478.16;1776611;80;21603;-68
2021/11/08 08:19:46;;;;;;;7.45;5.90;;;;;;;15.98;50.38;99485.18;1765957;80;21085;-67
2021/11/08 08:22:13;;;;;;;7.05;6.25;;;;;;;15.99;50.35;99478.77;1797774;78;21085;-68
2021/11/08 08:24:39;;;;;;;6.97;6.03;;;;;;;16.01;50.34;99493.30;1779638;77;21048;-68
2021/11/08 08:27:05;;;;;;;6.67;6.00;;;;;;;16.01;50.32;99490.63;1795425;78;21052;-70
2021/11/08 08:29:32;;;;;;;6.87;6.17;;;;;;;16.02;50.29;99481.05;1801924;79;21018;-69
2021/11/08 08:31:58;;;;;;;6.53;5.80;;;;;;;16.04;50.28;99488.88;1790764;78;21171;-68
2021/11/08 08:34:26;;;;;;;6.30;5.70;;;;;;;16.05;50.24;99489.17;1799046;79;21034;-69
2021/11/08 08:36:55;;;;;;;6.15;5.55;;;;;;;16.06;50.23;99482.79;1796398;78;21084;-69
2021/11/08 08:39:23;;;;;;;6.95;5.62;;;;;;;16.08;50.17;99482.06;1800877;78;21477;-68
2021/11/08 08:41:51;;;;;;;6.80;6.10;;;;;;;16.11;50.14;99477.63;1779938;77;21622;-68
2021/11/08 08:44:17;;;;;;;6.33;5.72;;;;;;;16.12;50.12;99484.63;1780818;77;21134;-68
2021/11/08 08:46:45;;;;;;;6.30;5.70;;;;;;;16.16;50.08;99481.02;1787991;78;21616;-68
2021/11/08 08:49:14;;;;;;;6.55;5.60;;;;;;;16.17;50.07;99478.13;1783414;78;21016;-68
2021/11/08 08:51:42;;;;;;;6.62;5.97;;;;;;;16.21;50.06;99483.37;1806269;78;21129;-68
2021/11/08 08:54:09;;;;;;;6.25;5.65;;;;;;;16.25;49.98;99487.27;1795819;78;22106;-68
2021/11/08 08:56:35;;;;;;;5.83;5.17;;;;;;;16.30;49.97;99486.12;1797328;79;21069;-66
2021/11/08 08:59:03;;;;;;;5.85;5.25;;;;;;;16.35;49.92;99486.81;1783403;77;20995;-67
2021/11/08 09:01:29;;;;;;;5.97;5.40;;;;;;;16.41;49.87;99495.88;1800624;78;21060;-68
2021/11/08 09:03:59;;;;;;;6.30;5.65;;;;;;;16.46;49.84;99489.37;1794065;78;21512;-68
2021/11/08 09:06:26;;;;;;;6.08;5.47;;;;;;;16.52;49.81;99488.52;1802733;77;21076;-68
2021/11/08 09:08:53;;;;;;;5.70;5.10;;;;;;;16.57;49.79;99485.99;1804306;78;21501;-68
2021/11/08 09:11:23;;;;;;;5.42;4.90;;;;;;;16.63;49.71;99490.53;1800533;78;21057;-68
2021/11/08 09:13:50;;;;;;;6.25;5.65;;;;;;;16.68;49.67;99495.23;1805628;78;20999;-70
2021/11/08 09:16:18;;;;;;;5.83;5.22;;;;;;;16.73;49.60;99499.45;1807730;77;21032;-69
2021/11/08 09:18:53;;;;;;;6.05;5.45;;;;;;;16.78;49.54;99501.48;1791449;79;22187;-68
2021/11/08 09:21:17;;;;;;;5.58;5.05;;;;;;;16.84;49.50;99489.42;1803472;77;21782;-68
2021/11/08 09:23:45;;;;;;;5.90;5.30;;;;;;;16.90;49.46;99494.42;1832947;77;21029;-68
2021/11/08 09:26:11;;;;;;;5.80;5.30;;;;;;;16.94;49.43;99494.81;1847818;77;21017;-68
2021/11/08 09:28:37;;;;;;;5.72;5.20;;;;;;;16.97;49.40;99511.31;1837335;77;21006;-70
2021/11/08 09:31:04;;;;;;;6.10;5.50;;;;;;;16.99;49.35;99496.34;1842062;77;20997;-67
2021/11/08 09:33:31;;;;;;;5.30;4.80;;;;;;;17.00;49.33;99501.50;1834076;76;21103;-68
2021/11/08 09:36:03;;;;;;;5.97;5.15;;;;;;;17.01;49.31;99495.08;1855525;76;21501;-67
2021/11/08 09:38:25;;;;;;;5.22;4.67;;;;;;;17.02;49.28;99484.66;1845968;77;21060;-66
2021/11/08 09:40:51;;;;;;;5.87;5.33;;;;;;;17.03;49.26;99483.61;1840675;76;21513;-67
2021/11/08 09:43:23;;;;;;;5.50;5.00;;;;;;;17.04;49.24;99483.92;1835649;77;21041;-67
2021/11/08 09:45:49;;;;;;;5.03;4.53;;;;;;;17.05;49.22;99482.87;1813427;76;21792;-68
2021/11/08 09:48:24;;;;;;;5.65;4.95;;;;;;;17.06;49.17;99472.45;1840204;77;20966;-67
2021/11/08 09:50:50;;;;;;;4.97;4.53;;;;;;;17.06;49.15;99473.80;1850881;77;21036;-68
2021/11/08 09:53:17;;;;;;;5.87;5.28;;;;;;;17.07;49.13;99488.02;1838909;76;21021;-67
2021/11/08 09:55:45;;;;;;;5.67;5.17;;;;;;;17.08;49.13;99490.50;1836191;77;21623;-65
2021/11/08 09:58:11;;;;;;;5.17;4.67;;;;;;;17.08;49.08;99482.45;1822849;75;22142;-65
2021/11/08 10:00:52;;;;;;;5.58;5.05;;;;;;;17.09;49.05;99493.50;1833901;77;20993;-67
2021/11/08 10:03:24;;;;;;;5.42;4.92;;;;;;;17.10;49.03;99493.78;1846093;77;20990;-66
2021/11/08 10:05:54;;;;;;;5.67;5.15;;;;;;;17.10;49.01;99508.55;1842923;77;28192;-67
2021/11/08 10:08:26;;;;;;;5.37;4.87;;;;;;;17.10;49.00;99512.57;1782533;79;21758;-67
2021/11/08 10:10:58;;;;;;;5.83;4.83;;;;;;;17.12;48.99;99512.89;1832368;76;21081;-67
2021/11/08 10:13:31;;;;;;;5.30;4.60;;;;;;;17.13;48.95;99507.80;1776571;80;21143;-68
2021/11/08 10:16:15;;;;;;;5.90;4.85;;;;;;;17.15;48.92;99525.86;1845246;77;21530;-67
2021/11/08 10:18:46;;;;;;;5.60;5.10;;;;;;;17.16;48.87;99515.44;1841983;77;20982;-68
2021/11/08 10:21:17;;;;;;;5.17;4.67;;;;;;;17.19;48.90;99523.05;1835624;76;21068;-66
2021/11/08 10:23:48;;;;;;;5.40;4.60;;;;;;;17.19;48.91;99517.67;1836458;77;21891;-66
2021/11/08 10:26:18;;;;;;;5.10;4.60;;;;;;;17.21;48.90;99510.22;1834070;77;21587;-66
2021/11/08 10:29:03;;;;;;;4.87;4.40;;;;;;;17.21;48.89;99510.22;1834994;77;21639;-68
2021/11/08 10:31:33;;;;;;;4.55;4.15;;;;;;;17.22;48.88;99504.64;1839278;77;21053;-67
2021/11/08 10:34:06;;;;;;;4.90;4.40;;;;;;;17.21;48.85;99524.48;1845099;77;21013;-67
2021/11/08 10:36:33;;;;;;;5.22;4.72;;;;;;;17.21;48.83;99523.14;1841775;77;21075;-68
2021/11/08 10:39:01;;;;;;;4.78;4.28;;;;;;;17.22;48.81;99516.72;1831613;77;21035;-67
2021/11/08 10:41:31;;;;;;;4.62;4.22;;;;;;;17.21;48.79;99507.04;1818071;77;21009;-68
2021/11/08 10:44:21;;;;;;;4.20;3.80;;;;;;;17.22;48.80;99522.62;1846534;77;21068;-67
2021/11/08 10:46:57;;;;;;;3.98;3.55;;;;;;;17.23;48.75;99513.52;1833468;77;21056;-67
2021/11/08 10:49:26;;;;;;;4.12;3.72;;;;;;;17.24;48.73;99513.83;1837533;77;21377;-67
2021/11/08 10:51:56;;;;;;;5.50;5.00;;;;;;;17.16;48.70;99507.39;1828769;77;21041;-67
2021/11/08 10:54:36;;;;;;;5.28;4.78;;;;;;;17.27;48.69;99508.03;1845311;77;21065;-66
2021/11/08 10:57:07;;;;;;;4.50;4.10;;;;;;;17.27;48.67;99503.48;1823613;77;21047;-71
2021/11/08 10:59:44;;;;;;;4.30;3.90;;;;;;;17.28;48.63;99498.40;1815178;77;21078;-67
2021/11/08 11:02:13;;;;;;;4.95;4.45;;;;;;;17.29;48.61;99509.98;1818897;77;21791;-66
2021/11/08 11:04:49;;;;;;;4.47;4.05;;;;;;;17.28;48.59;99501.61;1823637;77;21013;-67
2021/11/08 11:07:26;;;;;;;5.03;4.53;;;;;;;17.28;48.58;99498.93;1829086;77;21033;-67
2021/11/08 11:10:13;;;;;;;4.53;3.90;;;;;;;17.27;48.59;99495.43;1771906;79;21061;-68
2021/11/08 11:12:48;;;;;;;4.95;4.37;;;;;;;17.27;48.61;99499.98;1800330;79;21532;-70
2021/11/08 11:15:23;;;;;;;4.50;4.10;;;;;;;17.25;48.62;99495.35;1826893;77;22158;-66
2021/11/08 11:17:55;;;;;;;4.00;3.70;;;;;;;17.24;48.65;99507.12;1836356;77;21092;-68
2021/11/08 11:20:31;;;;;;;3.95;3.65;;;;;;;17.23;48.63;99513.52;1826599;77;21014;-69
2021/11/08 11:23:09;;;;;;;4.58;4.17;;;;;;;17.21;48.62;99494.12;1836174;77;21064;-67
2021/11/08 11:25:33;;;;;;;;;;;;;;;17.20;48.63;99501.88;1834148;77;21069;-67
2021/11/08 11:28:05;;;;;;;4.28;3.75;;;;;;;17.21;48.66;99504.86;1849710;77;21083;-67
2021/11/08 11:30:35;;;;;;;4.37;3.98;;;;;;;17.16;48.70;99506.05;1839733;76;22486;-67
2021/11/08 11:33:15;;;;;;;4.80;4.30;;;;;;;17.16;48.71;99516.78;1851018;77;21534;-67
2021/11/08 11:35:52;;;;;;;4.85;4.35;;;;;;;17.14;48.70;99509.47;1847038;76;21037;-67
2021/11/08 11:38:30;;;;;;;4.17;3.77;;;;;;;17.15;48.69;99512.44;1847726;76;21052;-68
2021/11/08 11:41:22;;;;;;;4.10;3.70;;;;;;;17.14;48.67;99517.52;1837805;76;21078;-67
2021/11/08 11:43:58;;;;;;;4.47;3.72;;;;;;;17.12;48.71;99519.07;1823295;76;20967;-67
2021/11/08 11:46:28;;;;;;;3.90;3.42;;;;;;;17.11;48.68;99520.09;1809307;77;21084;-67
2021/11/08 11:48:55;;;;;;;3.87;3.50;;;;;;;17.10;48.72;99507.20;1853537;77;21020;-66
2021/11/08 11:51:27;;;;;;;3.95;3.65;;;;;;;17.10;48.72;99505.05;1844722;77;21072;-64
2021/11/08 11:53:55;;;;;;;5.20;3.37;;;;;;;17.09;48.68;99487.28;1848769;76;21123;-64
2021/11/08 11:56:22;;;;;;;3.67;3.25;;;;;;;17.09;48.70;99495.34;1847305;77;20983;-67
2021/11/08 11:58:49;;;;;;;5.08;3.77;;;;;;;17.09;49.17;99501.55;1850904;76;21095;-65
2021/11/08 12:01:18;;;;;;;4.10;3.67;;;;;;;17.11;50.95;99505.34;1846436;76;21087;-64
2021/11/08 12:03:46;;;;;;;5.53;3.62;;;;;;;17.14;52.96;99504.09;1847251;76;21025;-63
2021/11/08 12:06:16;;;;;;;4.05;3.65;;;;;;;17.17;54.81;99504.49;1850278;77;21056;-63
2021/11/08 12:08:43;;;;;;;5.87;4.22;;;;;;;17.19;55.69;99506.94;1830274;76;21607;-67
2021/11/08 12:11:10;;;;;;;5.83;4.08;;;;;;;17.21;56.13;99510.22;1850769;77;21480;-65
2021/11/08 12:13:40;;;;;;;4.92;3.77;;;;;;;17.23;56.51;99521.56;1855402;76;20998;-65
2021/11/08 12:16:18;;;;;;;5.05;4.03;;;;;;;17.24;56.82;99515.98;1838091;77;21023;-65
2021/11/08 12:18:46;;;;;;;4.30;3.27;;;;;;;17.25;57.15;99519.52;1829386;77;21148;-64
2021/11/08 12:21:29;;;;;;;4.83;3.50;;;;;;;17.26;57.28;99527.33;1833390;77;22181;-66
2021/11/08 12:23:58;;;;;;;5.12;3.62;;;;;;;17.25;57.56;99532.41;1851981;76;21571;-64
2021/11/08 12:26:28;;;;;;;4.28;3.50;;;;;;;17.27;57.78;99528.98;1839800;76;21501;-63
2021/11/08 12:29:10;;;;;;;3.52;3.20;;;;;;;17.27;57.98;99526.83;1831787;76;21021;-64
2021/11/08 12:31:37;;;;;;;6.47;3.50;;;;;;;17.28;58.13;99532.48;1773412;80;21185;-65
2021/11/08 12:34:09;;;;;;;4.78;3.02;;;;;;;17.28;58.19;99528.45;1772561;80;21021;-64
2021/11/08 12:36:36;;;;;;;3.55;3.22;;;;;;;17.28;58.23;99531.14;1782764;80;21128;-64
2021/11/08 12:39:10;;;;;;;4.92;3.35;;;;;;;17.29;58.23;99530.12;1777777;79;21018;-64
2021/11/08 12:41:48;;;;;;;5.72;3.00;;;;;;;17.29;58.14;99537.64;1801140;79;21119;-63
2021/11/08 12:44:19;;;;;;;6.33;3.98;;;;;;;17.29;58.09;99536.83;1774904;79;21097;-65
2021/11/08 12:46:57;;;;;;;5.08;3.12;;;;;;;17.30;58.04;99545.98;1805002;79;21029;-61
2021/11/08 12:49:51;;;;;;;4.65;3.37;;;;;;;17.29;57.96;99547.57;1769630;80;21018;-61
2021/11/08 12:52:21;;;;;;;4.30;3.10;;;;;;;17.29;57.89;99535.48;1771011;80;21112;-62
2021/11/08 12:54:55;;;;;;;4.60;3.27;;;;;;;17.26;57.72;99539.94;1805253;79;21073;-61
2021/11/08 12:57:24;;;;;;;4.37;3.00;;;;;;;17.26;57.49;99538.59;1779029;80;21145;-62
2021/11/08 13:00:00;;;;;;;7.45;3.60;;;;;;;17.26;57.25;99534.56;1782797;80;21080;-61
2021/11/08 13:02:37;;;;;;;4.80;2.90;;;;;;;17.24;56.98;99537.98;1777852;80;21014;-64
2021/11/08 13:05:06;;;;;;;3.72;2.70;;;;;;;17.23;56.70;99537.67;1765927;80;21545;-62
2021/11/08 13:07:36;;;;;;;5.45;3.20;;;;;;;17.23;56.46;99543.88;1766287;80;21488;-62
2021/11/08 13:10:22;;;;;;;5.47;3.45;;;;;;;17.22;56.27;99548.94;1773437;79;21095;-62